Terminal Aerodrome Forecast
Issued by NWS Mobile, AL

Home | Current Version | Previous Version | Text Only | Print | Product List | Glossary On
Versions: 1 2 3 4 5 6 7 8 9 10 11 12 13 14 15 16 17 18 19 20 21 22 23 24 25 26 27 28 29 30 31 32 33 34 35 36 37 38 39 40 41 42 43 44 45 46 47 48 49 50
000
FTUS44 KMOB 201158
TAFPNS
TAF
KPNS 201158Z 2012/2112 20003KT 6SM BR BKN010
      TEMPO 2012/2014 1SM BR
     FM201600 22011KT P6SM SCT020
     FM210300 18005KT 3SM BR OVC005
      TEMPO 2110/2112 2SM TSRA BKN007CB=

USA.gov is the U.S. government's official web portal to all federal, state and local government web resources and services.